Time;durP1;ratioP1;P1;durP2;ratioP2;P2;SDS_P1;SDS_P2;PMS_P1;PMS_P2;Temp;Humidity;BMP_temperature;BMP_pressure;BME280_temperature;BME280_humidity;BME280_pressure;Samples;Min_cycle;Max_cycle;Signal;HPM_P1;HPM_P2
2023/09/26 00:00:54;;;;;;;3.97;1.73;;;12.00;99.90;;;;;;5091854;28;20118;-53
2023/09/26 00:03:19;;;;;;;4.23;1.70;;;12.00;99.90;;;;;;5091944;28;20038;-52
2023/09/26 00:05:45;;;;;;;5.37;1.73;;;12.00;99.90;;;;;;5091894;28;20473;-49
2023/09/26 00:08:10;;;;;;;3.97;1.97;;;11.90;99.90;;;;;;5091697;28;20028;-53
2023/09/26 00:10:36;;;;;;;3.60;1.60;;;11.90;99.90;;;;;;5091375;28;20400;-53
2023/09/26 00:13:02;;;;;;;2.55;1.52;;;11.90;99.90;;;;;;5091768;28;20129;-54
2023/09/26 00:15:27;;;;;;;3.80;1.77;;;11.90;99.90;;;;;;5091590;28;20361;-51
2023/09/26 00:17:53;;;;;;;3.87;1.53;;;11.90;99.90;;;;;;5091946;28;20028;-50
2023/09/26 00:20:22;;;;;;;3.83;1.63;;;11.80;99.90;;;;;;5073331;28;20031;-52
2023/09/26 00:22:48;;;;;;;4.90;1.98;;;11.80;99.90;;;;;;5091402;28;20040;-52
2023/09/26 00:25:13;;;;;;;5.50;1.83;;;11.80;99.90;;;;;;5091569;28;20027;-50
2023/09/26 00:27:39;;;;;;;3.13;1.73;;;11.70;99.90;;;;;;5073348;28;20039;-54
2023/09/26 00:30:07;;;;;;;4.40;2.07;;;11.70;99.90;;;;;;5072892;28;20115;-53
2023/09/26 00:32:33;;;;;;;3.10;1.80;;;11.70;99.90;;;;;;5091436;28;20115;-52
2023/09/26 00:34:59;;;;;;;3.50;1.67;;;11.70;99.90;;;;;;5073158;28;20028;-52
2023/09/26 00:37:25;;;;;;;3.03;1.63;;;11.70;99.90;;;;;;5073107;28;20024;-53
2023/09/26 00:39:50;;;;;;;7.03;2.10;;;11.70;99.90;;;;;;5072670;28;20032;-49
2023/09/26 00:42:16;;;;;;;4.30;1.90;;;11.70;99.90;;;;;;5073303;28;20313;-53
2023/09/26 00:44:42;;;;;;;4.07;1.80;;;11.70;99.90;;;;;;5073541;28;20032;-49
2023/09/26 00:47:07;;;;;;;4.17;1.70;;;11.70;99.90;;;;;;5072437;28;20028;-51
2023/09/26 00:49:33;;;;;;;3.80;1.60;;;11.70;99.90;;;;;;5055975;28;20463;-50
2023/09/26 00:52:00;;;;;;;8.00;2.10;;;11.70;99.90;;;;;;5072774;28;20043;-50
2023/09/26 00:54:27;;;;;;;5.30;2.10;;;11.60;99.90;;;;;;5072865;28;20503;-50
2023/09/26 00:56:53;;;;;;;4.17;2.20;;;11.60;99.90;;;;;;5072819;28;20131;-49
2023/09/26 00:59:20;;;;;;;4.33;1.83;;;11.60;99.90;;;;;;5072636;28;20057;-53
2023/09/26 01:01:48;;;;;;;4.20;2.00;;;11.60;99.90;;;;;;5072561;28;20028;-50
2023/09/26 01:04:15;;;;;;;3.63;1.63;;;11.60;99.90;;;;;;5090877;28;20078;-49
2023/09/26 01:06:41;;;;;;;4.13;1.90;;;11.60;99.90;;;;;;5090965;28;20028;-53
2023/09/26 01:09:09;;;;;;;4.37;1.50;;;11.50;99.90;;;;;;5090592;28;20030;-49
2023/09/26 01:11:36;;;;;;;4.32;2.08;;;11.50;99.90;;;;;;5090836;28;20277;-50
2023/09/26 01:14:02;;;;;;;4.33;1.83;;;11.50;99.90;;;;;;5072874;28;20079;-53
2023/09/26 01:16:27;;;;;;;4.20;1.77;;;11.50;99.90;;;;;;5090967;28;20499;-52
2023/09/26 01:18:53;;;;;;;3.73;1.90;;;11.50;99.90;;;;;;5072586;28;20035;-49
2023/09/26 01:21:19;;;;;;;4.17;1.77;;;11.50;99.90;;;;;;5073307;28;20028;-50
2023/09/26 01:23:57;;;;;;;4.50;1.80;;;11.50;99.90;;;;;;5072806;28;20040;-53
2023/09/26 01:26:24;;;;;;;3.85;1.38;;;11.50;99.90;;;;;;5072981;28;20036;-53
2023/09/26 01:28:50;;;;;;;5.90;1.90;;;11.50;99.90;;;;;;5090720;28;20119;-53
2023/09/26 01:31:15;;;;;;;5.73;1.80;;;11.50;99.90;;;;;;5072596;28;20119;-52
2023/09/26 01:33:41;;;;;;;4.17;1.73;;;11.50;99.90;;;;;;5073074;28;20432;-53
2023/09/26 01:36:08;;;;;;;4.77;1.80;;;11.40;99.90;;;;;;5091031;28;20032;-50
2023/09/26 01:38:33;;;;;;;4.60;1.70;;;11.30;99.90;;;;;;5090670;28;20028;-54
2023/09/26 01:40:59;;;;;;;7.37;1.87;;;11.30;99.90;;;;;;5090627;28;20021;-53
2023/09/26 01:43:25;;;;;;;3.93;1.70;;;11.20;99.90;;;;;;5072906;28;20547;-53
2023/09/26 01:45:51;;;;;;;4.10;1.80;;;11.20;99.90;;;;;;5090663;28;20032;-52
2023/09/26 01:48:16;;;;;;;5.20;2.07;;;11.20;99.90;;;;;;5055792;28;20047;-53
2023/09/26 01:50:42;;;;;;;3.63;2.00;;;11.10;99.90;;;;;;5072366;28;20032;-52
2023/09/26 01:53:10;;;;;;;3.50;1.80;;;11.10;99.90;;;;;;5091028;28;20573;-54
2023/09/26 01:55:38;;;;;;;4.37;1.90;;;11.10;99.90;;;;;;5090615;28;20404;-54
2023/09/26 01:58:04;;;;;;;4.15;1.80;;;11.10;99.90;;;;;;5072327;28;20043;-54
2023/09/26 02:00:30;;;;;;;4.50;1.43;;;11.00;99.90;;;;;;5074988;28;20500;-53
2023/09/26 02:02:57;;;;;;;4.00;1.90;;;11.00;99.90;;;;;;5094498;28;20028;-53
2023/09/26 02:05:23;;;;;;;4.77;2.27;;;11.00;99.90;;;;;;5094521;28;20119;-51
2023/09/26 02:07:50;;;;;;;6.53;2.17;;;11.00;99.90;;;;;;5094125;28;20377;-51
2023/09/26 02:10:17;;;;;;;3.13;1.90;;;11.00;99.90;;;;;;5075510;28;20036;-50
2023/09/26 02:12:45;;;;;;;4.53;1.93;;;11.00;99.90;;;;;;5094151;28;20480;-50
2023/09/26 02:15:12;;;;;;;3.43;1.87;;;11.00;99.90;;;;;;5093928;28;20024;-50
2023/09/26 02:17:39;;;;;;;3.50;1.70;;;11.00;99.90;;;;;;5075812;28;20028;-52
2023/09/26 02:20:12;;;;;;;3.43;1.70;;;11.00;99.90;;;;;;5075532;28;20069;-53
2023/09/26 02:22:42;;;;;;;3.57;2.00;;;11.00;99.90;;;;;;5075740;28;20202;-52
2023/09/26 02:25:14;;;;;;;3.47;1.93;;;10.90;99.90;;;;;;5093923;28;20096;-51
2023/09/26 02:27:41;;;;;;;5.13;1.77;;;10.90;99.90;;;;;;5093706;28;20036;-53
2023/09/26 02:30:12;;;;;;;5.13;1.90;;;10.90;99.90;;;;;;5075197;28;20499;-53
2023/09/26 02:32:38;;;;;;;4.63;1.77;;;11.00;99.90;;;;;;5093914;28;20038;-53
2023/09/26 02:35:05;;;;;;;4.37;1.83;;;11.00;99.90;;;;;;5075427;28;20036;-54
2023/09/26 02:37:31;;;;;;;3.50;1.83;;;11.00;99.90;;;;;;5093622;28;20404;-49
2023/09/26 02:39:57;;;;;;;5.17;1.80;;;11.00;99.90;;;;;;5075051;28;20028;-49
2023/09/26 02:42:22;;;;;;;3.57;2.00;;;11.00;99.90;;;;;;5093569;28;20206;-49
2023/09/26 02:44:48;;;;;;;4.03;2.10;;;11.00;99.90;;;;;;5093515;28;20031;-50
2023/09/26 02:47:14;;;;;;;3.50;1.97;;;10.90;99.90;;;;;;5093325;28;20050;-50
2023/09/26 02:49:41;;;;;;;4.80;2.20;;;10.90;99.90;;;;;;5074889;28;20024;-49
2023/09/26 02:52:07;;;;;;;4.87;2.03;;;10.90;99.90;;;;;;5093154;28;20502;-50
2023/09/26 02:54:33;;;;;;;2.87;2.00;;;10.90;99.90;;;;;;5058293;28;20028;-49
2023/09/26 02:56:59;;;;;;;3.80;2.10;;;10.90;99.90;;;;;;5075127;28;20476;-49
2023/09/26 02:59:24;;;;;;;5.13;2.10;;;10.90;99.90;;;;;;5074798;28;20449;-48
2023/09/26 03:01:51;;;;;;;3.70;2.23;;;11.00;99.90;;;;;;5074782;28;20492;-49
2023/09/26 03:04:17;;;;;;;4.57;1.93;;;11.00;99.90;;;;;;5093101;28;20028;-49
2023/09/26 03:06:43;;;;;;;3.70;2.17;;;11.00;99.90;;;;;;5074840;28;20396;-49
2023/09/26 03:09:09;;;;;;;5.33;2.33;;;11.00;99.90;;;;;;5074437;28;20039;-50
2023/09/26 03:11:34;;;;;;;4.53;2.10;;;11.00;99.90;;;;;;5073959;28;20115;-49
2023/09/26 03:14:00;;;;;;;3.77;2.10;;;10.90;99.90;;;;;;5074813;28;20035;-49
2023/09/26 03:16:25;;;;;;;4.97;2.13;;;10.90;99.90;;;;;;5074667;28;20028;-49
2023/09/26 03:18:54;;;;;;;3.43;2.03;;;11.00;99.90;;;;;;5092544;28;20024;-49
2023/09/26 03:21:21;;;;;;;3.67;1.80;;;10.90;99.90;;;;;;5074374;28;20549;-48
2023/09/26 03:23:46;;;;;;;4.10;2.23;;;10.90;99.90;;;;;;5074374;28;20134;-49
2023/09/26 03:26:15;;;;;;;4.83;2.30;;;10.90;99.90;;;;;;5074493;28;20111;-48
2023/09/26 03:28:41;;;;;;;6.00;2.83;;;11.00;99.90;;;;;;5092393;28;20031;-50
2023/09/26 03:31:11;;;;;;;4.93;2.40;;;11.10;99.90;;;;;;5074387;28;20404;-49
2023/09/26 03:33:37;;;;;;;3.80;2.13;;;11.00;99.90;;;;;;5074706;28;20032;-48
2023/09/26 03:36:03;;;;;;;6.67;2.10;;;11.00;99.90;;;;;;5074399;28;20028;-48
2023/09/26 03:38:32;;;;;;;3.43;2.03;;;11.00;99.90;;;;;;5092178;28;20031;-52
2023/09/26 03:41:00;;;;;;;3.25;2.00;;;11.00;99.90;;;;;;5073870;28;20119;-51
2023/09/26 03:43:26;;;;;;;4.30;1.80;;;11.00;99.90;;;;;;5092364;28;20036;-53
2023/09/26 03:46:01;;;;;;;4.97;2.17;;;11.00;99.90;;;;;;5092250;28;20035;-52
2023/09/26 03:48:27;;;;;;;4.40;2.20;;;11.00;99.90;;;;;;5091924;28;20063;-51
2023/09/26 03:50:53;;;;;;;4.63;2.13;;;11.00;99.90;;;;;;5091837;28;20028;-53
2023/09/26 03:53:18;;;;;;;4.27;2.37;;;11.00;99.90;;;;;;5092189;28;20431;-52
2023/09/26 03:55:52;;;;;;;3.60;2.10;;;10.90;99.90;;;;;;5073781;28;20031;-53
2023/09/26 03:58:17;;;;;;;4.20;2.13;;;11.00;99.90;;;;;;5091847;28;20031;-52
2023/09/26 04:00:43;;;;;;;4.60;2.40;;;11.00;99.90;;;;;;5091724;28;20115;-51
2023/09/26 04:03:09;;;;;;;4.17;1.90;;;11.00;99.90;;;;;;5091944;28;20024;-54
2023/09/26 04:05:34;;;;;;;4.93;2.10;;;11.00;99.90;;;;;;5091764;28;20446;-53
2023/09/26 04:08:00;;;;;;;5.73;2.10;;;10.90;99.90;;;;;;5092003;28;20040;-49
2023/09/26 04:10:25;;;;;;;4.50;2.37;;;10.90;99.90;;;;;;5091476;28;20040;-49
2023/09/26 04:12:51;;;;;;;6.23;2.60;;;10.90;99.90;;;;;;5091774;28;20053;-53
2023/09/26 04:15:17;;;;;;;4.97;2.43;;;10.90;99.90;;;;;;5091681;28;20496;-52
2023/09/26 04:17:43;;;;;;;3.77;1.97;;;10.80;99.90;;;;;;5091597;28;20040;-53
2023/09/26 04:20:12;;;;;;;5.70;2.73;;;10.80;99.90;;;;;;5091137;28;20110;-51
2023/09/26 04:22:38;;;;;;;4.32;2.40;;;10.80;99.90;;;;;;5072576;28;20510;-49
2023/09/26 04:25:04;;;;;;;5.00;2.43;;;10.80;99.90;;;;;;5091690;28;20036;-53
2023/09/26 04:27:30;;;;;;;3.93;2.27;;;10.80;99.90;;;;;;5091500;28;20051;-51
2023/09/26 04:29:56;;;;;;;5.37;2.30;;;10.80;99.90;;;;;;5091158;28;20502;-51
2023/09/26 04:32:22;;;;;;;4.90;2.33;;;10.70;99.90;;;;;;5091455;28;20064;-52
2023/09/26 04:34:48;;;;;;;4.53;2.50;;;10.70;99.90;;;;;;5091140;28;20115;-53
2023/09/26 04:37:13;;;;;;;4.57;2.80;;;10.70;99.90;;;;;;5091334;28;20134;-53
2023/09/26 04:39:39;;;;;;;5.90;2.70;;;10.70;99.90;;;;;;5090923;28;20032;-53
2023/09/26 04:42:05;;;;;;;4.40;2.23;;;10.70;99.90;;;;;;5091024;28;20092;-53
2023/09/26 04:44:31;;;;;;;6.03;2.23;;;10.70;99.90;;;;;;5073176;28;20370;-53
2023/09/26 04:46:57;;;;;;;4.17;2.37;;;10.70;99.90;;;;;;5091177;28;20031;-53
2023/09/26 04:49:22;;;;;;;4.87;2.57;;;10.70;99.90;;;;;;5072852;28;20020;-54
2023/09/26 04:51:48;;;;;;;4.90;2.77;;;10.70;99.90;;;;;;5072845;28;20024;-53
2023/09/26 04:54:14;;;;;;;3.43;2.20;;;10.60;99.90;;;;;;5091318;28;20225;-50
2023/09/26 04:56:40;;;;;;;4.53;2.60;;;10.60;99.90;;;;;;5091089;28;20096;-53
2023/09/26 04:59:06;;;;;;;4.87;2.47;;;10.60;99.90;;;;;;5091194;28;20111;-53
2023/09/26 05:01:32;;;;;;;5.10;2.40;;;10.70;99.90;;;;;;5090850;28;20423;-53
2023/09/26 05:03:58;;;;;;;7.30;2.50;;;10.70;99.90;;;;;;5090877;28;20471;-50
2023/09/26 05:06:23;;;;;;;4.63;2.70;;;10.70;99.90;;;;;;5090952;28;20523;-51
2023/09/26 05:08:50;;;;;;;4.40;2.10;;;10.70;99.90;;;;;;5072449;28;20035;-54
2023/09/26 05:11:16;;;;;;;8.80;2.67;;;10.70;99.90;;;;;;5090630;28;20118;-51
2023/09/26 05:13:43;;;;;;;5.43;2.60;;;10.70;99.90;;;;;;5090804;28;20111;-51
2023/09/26 05:16:12;;;;;;;6.47;2.53;;;10.70;99.90;;;;;;5090635;28;20036;-53
2023/09/26 05:18:38;;;;;;;5.37;2.70;;;10.70;99.90;;;;;;5090431;28;20093;-53
2023/09/26 05:21:08;;;;;;;6.03;2.57;;;10.70;99.90;;;;;;5090484;28;20492;-53
2023/09/26 05:23:34;;;;;;;8.52;3.90;;;10.70;99.90;;;;;;5090411;28;20061;-53
2023/09/26 05:26:10;;;;;;;5.40;3.07;;;10.70;99.90;;;;;;5090683;28;20071;-51
2023/09/26 05:28:36;;;;;;;5.53;2.73;;;10.80;99.90;;;;;;5090483;28;20036;-54
2023/09/26 05:31:02;;;;;;;6.17;2.93;;;10.80;99.90;;;;;;5090297;28;20046;-52
2023/09/26 05:33:27;;;;;;;7.30;2.93;;;10.90;99.90;;;;;;5073710;28;20028;-53
2023/09/26 05:35:55;;;;;;;5.13;2.60;;;11.00;99.90;;;;;;5076666;28;20092;-54
2023/09/26 05:38:21;;;;;;;7.10;2.77;;;11.00;99.90;;;;;;5094732;28;20476;-50
2023/09/26 05:40:47;;;;;;;3.83;2.40;;;11.10;99.90;;;;;;5094480;28;20028;-50
2023/09/26 05:43:13;;;;;;;7.63;2.77;;;11.20;99.90;;;;;;5094662;28;20043;-54
2023/09/26 05:45:38;;;;;;;7.53;3.00;;;11.20;99.90;;;;;;5076507;28;20035;-51
2023/09/26 05:48:04;;;;;;;6.27;3.37;;;11.20;99.90;;;;;;5094679;28;20028;-52
2023/09/26 05:50:31;;;;;;;4.17;2.80;;;11.20;99.90;;;;;;5094216;28;20028;-52
2023/09/26 05:52:56;;;;;;;8.03;3.00;;;11.20;99.90;;;;;;5076464;28;20385;-50
2023/09/26 05:55:22;;;;;;;5.27;2.90;;;11.10;99.90;;;;;;5094995;28;20035;-54
2023/09/26 05:57:48;;;;;;;7.20;3.17;;;11.20;99.90;;;;;;5094559;28;20031;-54
2023/09/26 06:00:15;;;;;;;6.20;2.87;;;11.20;99.90;;;;;;5094303;28;20032;-54
2023/09/26 06:02:41;;;;;;;7.67;3.40;;;11.20;99.90;;;;;;5094361;28;20035;-54
2023/09/26 06:05:07;;;;;;;5.20;2.87;;;11.20;99.90;;;;;;5094649;28;20032;-53
2023/09/26 06:07:33;;;;;;;8.07;3.07;;;11.20;99.90;;;;;;5094303;28;20128;-54
2023/09/26 06:09:59;;;;;;;5.97;3.10;;;11.20;99.90;;;;;;5094054;28;20378;-54
2023/09/26 06:12:25;;;;;;;5.70;2.83;;;11.50;99.90;;;;;;5094468;28;20394;-54
2023/09/26 06:14:51;;;;;;;5.50;2.60;;;11.60;99.90;;;;;;5094396;28;20067;-54
2023/09/26 06:17:17;;;;;;;7.83;2.80;;;11.80;99.90;;;;;;5094329;28;20043;-52
2023/09/26 06:19:47;;;;;;;8.40;3.07;;;11.80;99.90;;;;;;5093980;28;20046;-53
2023/09/26 06:22:13;;;;;;;7.65;3.08;;;11.90;99.90;;;;;;5094203;28;20028;-53
2023/09/26 06:24:39;;;;;;;6.27;3.30;;;12.00;99.90;;;;;;5094615;28;20342;-53
2023/09/26 06:27:04;;;;;;;7.50;3.40;;;12.00;99.90;;;;;;5075856;28;20032;-53
2023/09/26 06:29:30;;;;;;;6.77;3.33;;;12.00;99.90;;;;;;5093746;28;20077;-54
2023/09/26 06:31:56;;;;;;;5.83;3.10;;;12.10;99.90;;;;;;5093608;28;20028;-54
2023/09/26 06:34:21;;;;;;;6.73;3.13;;;12.10;99.90;;;;;;5093780;28;20485;-53
2023/09/26 06:36:51;;;;;;;6.57;3.17;;;12.10;99.90;;;;;;5093667;28;20399;-50
2023/09/26 06:39:17;;;;;;;4.63;3.20;;;12.20;99.90;;;;;;5093380;28;20032;-53
2023/09/26 06:41:42;;;;;;;7.37;3.20;;;12.40;99.90;;;;;;5093488;28;20031;-50
2023/09/26 06:44:09;;;;;;;7.13;3.13;;;12.60;99.90;;;;;;5093816;28;20042;-49
2023/09/26 06:46:36;;;;;;;6.13;3.53;;;12.70;99.90;;;;;;5092730;28;20495;-49
2023/09/26 06:49:03;;;;;;;7.18;2.80;;;12.90;99.90;;;;;;5093298;28;20537;-48
2023/09/26 06:51:30;;;;;;;5.57;2.50;;;13.00;99.90;;;;;;5075111;28;20380;-47
2023/09/26 06:53:56;;;;;;;5.85;3.35;;;13.10;99.90;;;;;;5075230;28;20490;-53
2023/09/26 06:56:22;;;;;;;6.18;2.42;;;13.10;99.90;;;;;;5093197;28;20040;-53
2023/09/26 06:58:48;;;;;;;7.03;3.03;;;13.10;99.90;;;;;;5093700;28;20048;-49
2023/09/26 07:01:15;;;;;;;5.68;2.30;;;13.30;99.90;;;;;;5093640;28;20515;-49
2023/09/26 07:03:41;;;;;;;5.00;2.72;;;13.40;99.90;;;;;;5093295;28;20365;-53
2023/09/26 07:06:12;;;;;;;6.65;3.15;;;13.70;99.90;;;;;;5093089;28;20060;-54
2023/09/26 07:08:38;;;;;;;6.60;3.22;;;13.80;99.90;;;;;;5092753;28;20075;-54
2023/09/26 07:11:05;;;;;;;5.63;2.72;;;14.00;99.90;;;;;;5092741;28;20090;-54
2023/09/26 07:13:31;;;;;;;9.00;2.78;;;14.10;99.90;;;;;;5093053;28;20050;-49
2023/09/26 07:16:01;;;;;;;5.43;2.90;;;14.20;99.90;;;;;;5092955;28;20323;-52
2023/09/26 07:18:26;;;;;;;5.05;2.60;;;14.30;99.90;;;;;;5092523;28;20036;-52
2023/09/26 07:20:53;;;;;;;5.18;2.58;;;14.40;99.90;;;;;;5092482;28;20020;-54
2023/09/26 07:23:18;;;;;;;5.68;2.65;;;14.60;99.90;;;;;;5092598;28;20377;-54
2023/09/26 07:25:44;;;;;;;5.68;2.60;;;14.70;99.90;;;;;;5092636;28;20039;-52
2023/09/26 07:28:10;;;;;;;5.80;2.72;;;14.80;99.90;;;;;;5092748;28;20020;-52
2023/09/26 07:30:36;;;;;;;3.88;2.35;;;14.90;99.90;;;;;;5092213;28;20085;-53
2023/09/26 07:33:01;;;;;;;4.60;2.47;;;15.10;99.90;;;;;;5092586;28;20522;-53
2023/09/26 07:35:28;;;;;;;10.70;5.97;;;15.20;99.90;;;;;;5092484;28;20035;-54
2023/09/26 07:37:58;;;;;;;4.65;2.80;;;15.40;99.90;;;;;;5092267;28;20046;-53
2023/09/26 07:40:24;;;;;;;7.70;3.45;;;15.50;99.90;;;;;;5092048;28;20043;-52
2023/09/26 07:42:49;;;;;;;4.38;2.63;;;15.60;99.90;;;;;;5092335;28;20028;-53
2023/09/26 07:45:16;;;;;;;4.93;2.13;;;15.70;99.90;;;;;;5092150;28;20051;-53
2023/09/26 07:47:43;;;;;;;3.03;2.08;;;15.80;99.90;;;;;;5092180;28;20184;-53
2023/09/26 07:50:09;;;;;;;5.03;2.47;;;15.90;99.90;;;;;;5073476;28;20036;-53
2023/09/26 07:52:35;;;;;;;2.70;1.90;;;16.00;99.90;;;;;;5092093;28;20121;-51
2023/09/26 07:55:00;;;;;;;5.70;2.83;;;16.10;99.90;;;;;;5091942;28;20028;-51
2023/09/26 07:57:26;;;;;;;2.60;1.98;;;16.20;99.90;;;;;;5091807;28;20081;-53
2023/09/26 07:59:51;;;;;;;4.18;1.85;;;16.40;99.90;;;;;;5091651;28;20110;-53
2023/09/26 08:02:17;;;;;;;2.58;1.73;;;16.50;99.90;;;;;;5091974;28;20115;-52
2023/09/26 08:04:43;;;;;;;5.40;2.17;;;16.60;99.90;;;;;;5091775;28;20034;-53
2023/09/26 08:07:08;;;;;;;5.28;2.38;;;16.70;99.90;;;;;;5091708;28;20384;-54
2023/09/26 08:09:34;;;;;;;4.97;2.42;;;16.80;99.90;;;;;;5091551;28;20036;-51
2023/09/26 08:12:00;;;;;;;4.80;1.90;;;16.90;99.90;;;;;;5091632;28;20028;-50
2023/09/26 08:14:25;;;;;;;3.70;1.92;;;17.00;99.90;;;;;;5091952;28;20104;-54
2023/09/26 08:16:51;;;;;;;3.95;1.90;;;17.10;99.90;;;;;;5091632;28;20048;-54
2023/09/26 08:19:16;;;;;;;6.35;1.83;;;17.10;99.90;;;;;;5091285;28;20039;-54
2023/09/26 08:21:44;;;;;;;4.10;2.10;;;17.30;99.90;;;;;;5091239;28;20073;-53
2023/09/26 08:24:10;;;;;;;4.07;1.92;;;17.40;99.90;;;;;;5091397;28;20028;-54
2023/09/26 08:26:35;;;;;;;3.97;2.03;;;17.50;99.90;;;;;;5091488;28;20039;-53
2023/09/26 08:29:01;;;;;;;4.80;2.10;;;17.60;99.90;;;;;;5091276;28;20038;-52
2023/09/26 08:31:27;;;;;;;4.93;1.83;;;17.70;99.90;;;;;;5091090;28;20127;-54
2023/09/26 08:33:53;;;;;;;4.32;1.60;;;17.80;99.90;;;;;;5091294;28;20039;-50
2023/09/26 08:36:20;;;;;;;3.75;1.88;;;17.80;99.90;;;;;;5091184;28;20093;-54
2023/09/26 08:38:47;;;;;;;3.42;1.50;;;17.90;99.90;;;;;;5091003;28;20030;-51
2023/09/26 08:41:16;;;;;;;2.85;1.73;;;18.00;99.90;;;;;;5091011;28;20093;-54
2023/09/26 08:43:43;;;;;;;2.92;1.75;;;18.00;99.90;;;;;;5091226;28;20024;-54
2023/09/26 08:46:09;;;;;;;5.22;2.10;;;18.10;99.90;;;;;;5091208;28;20118;-49
2023/09/26 08:48:35;;;;;;;2.90;1.70;;;18.30;99.90;;;;;;5090986;28;20088;-50
2023/09/26 08:51:02;;;;;;;3.65;1.67;;;18.40;99.90;;;;;;5091619;28;20472;-53
2023/09/26 08:53:28;;;;;;;2.58;1.55;;;18.50;99.90;;;;;;5090971;28;20070;-53
2023/09/26 08:55:54;;;;;;;3.25;1.70;;;18.50;99.90;;;;;;5090975;28;20063;-54
2023/09/26 08:58:20;;;;;;;4.13;1.73;;;18.60;99.90;;;;;;5072780;28;20086;-51
2023/09/26 09:00:46;;;;;;;2.83;1.58;;;18.60;99.90;;;;;;5090643;28;20147;-50
2023/09/26 09:03:15;;;;;;;3.67;1.70;;;18.70;99.90;;;;;;5090920;28;20035;-52
2023/09/26 09:05:41;;;;;;;3.95;1.88;;;18.70;99.90;;;;;;5090993;28;20028;-50
2023/09/26 09:08:08;;;;;;;2.90;1.70;;;18.80;99.90;;;;;;5090326;28;20031;-54
2023/09/26 09:10:55;;;;;;;11.63;6.13;;;18.80;99.90;;;;;;5090424;28;20480;-51
2023/09/26 09:13:42;;;;;;;3.30;1.95;;;18.90;99.90;;;;;;5090842;28;20137;-51
2023/09/26 09:16:15;;;;;;;6.00;2.88;;;19.10;99.90;;;;;;5090684;28;20105;-53
2023/09/26 09:18:43;;;;;;;4.75;2.55;;;19.20;99.90;;;;;;5090444;28;20028;-52
2023/09/26 09:21:27;;;;;;;4.28;2.10;;;19.30;99.90;;;;;;5090437;28;20056;-53
2023/09/26 09:23:54;;;;;;;4.28;2.75;;;19.50;99.90;;;;;;5090653;28;20034;-54
2023/09/26 09:26:22;;;;;;;3.95;1.70;;;19.60;99.90;;;;;;5090747;28;20430;-54
2023/09/26 09:28:50;;;;;;;5.30;2.72;;;19.80;99.90;;;;;;5090367;28;20055;-54
2023/09/26 09:31:16;;;;;;;3.97;1.73;;;20.00;99.90;;;;;;5090548;28;20151;-51
2023/09/26 09:33:46;;;;;;;4.18;1.80;;;20.10;99.90;;;;;;5090684;28;20409;-53
2023/09/26 09:36:12;;;;;;;2.65;1.70;;;20.20;99.90;;;;;;5090512;28;20058;-54
2023/09/26 09:38:38;;;;;;;4.40;1.63;;;20.30;99.90;;;;;;5090311;28;20119;-54
2023/09/26 09:41:04;;;;;;;4.95;1.50;;;20.60;99.90;;;;;;5090342;28;20115;-53
2023/09/26 09:43:30;;;;;;;3.95;1.60;;;20.90;99.90;;;;;;5090671;28;20043;-52
2023/09/26 09:45:57;;;;;;;7.53;3.17;;;21.10;99.90;;;;;;5090558;28;20032;-51
2023/09/26 09:48:26;;;;;;;4.05;1.40;;;21.40;99.90;;;;;;5090136;28;20024;-49
2023/09/26 09:50:54;;;;;;;7.18;2.63;;;21.50;99.90;;;;;;5090328;28;20111;-54
2023/09/26 09:53:22;;;;;;;4.13;1.90;;;21.70;99.90;;;;;;5090337;28;20038;-54
2023/09/26 09:55:51;;;;;;;3.60;1.92;;;21.70;99.90;;;;;;5090325;28;20032;-53
2023/09/26 09:58:22;;;;;;;3.90;1.80;;;21.90;99.90;;;;;;5090387;28;20032;-53
2023/09/26 10:00:48;;;;;;;3.00;1.90;;;22.10;99.90;;;;;;5090004;28;20086;-52
2023/09/26 10:03:15;;;;;;;4.90;2.55;;;22.40;99.90;;;;;;5090356;28;20024;-54
2023/09/26 10:05:43;;;;;;;3.97;1.70;;;22.50;99.90;;;;;;5090295;28;20028;-50
2023/09/26 10:08:09;;;;;;;5.00;1.52;;;22.70;99.90;;;;;;5090105;28;20059;-54
2023/09/26 10:10:35;;;;;;;3.22;1.58;;;22.60;99.90;;;;;;5071791;28;20031;-54
2023/09/26 10:13:02;;;;;;;2.90;1.30;;;22.80;99.90;;;;;;5090435;28;20028;-52
2023/09/26 10:15:33;;;;;;;5.95;2.60;;;23.00;99.50;;;;;;5090077;28;20032;-52
2023/09/26 10:18:02;;;;;;;3.72;1.33;;;23.30;99.90;;;;;;5090069;28;20028;-51
2023/09/26 10:20:28;;;;;;;3.95;1.58;;;23.70;99.50;;;;;;5090892;28;20028;-52
2023/09/26 10:23:10;;;;;;;4.43;1.80;;;24.30;97.50;;;;;;5093797;28;20524;-52
2023/09/26 10:25:36;;;;;;;5.38;2.45;;;25.00;96.50;;;;;;5093798;28;20418;-54
2023/09/26 10:28:04;;;;;;;2.45;1.50;;;25.80;96.10;;;;;;5093650;28;20028;-51
2023/09/26 10:30:43;;;;;;;2.00;1.33;;;27.20;92.50;;;;;;5093545;28;20032;-51
2023/09/26 10:33:09;;;;;;;3.17;1.50;;;28.70;89.60;;;;;;5075827;28;20039;-49
2023/09/26 10:35:42;;;;;;;1.77;1.20;;;29.50;85.80;;;;;;5093868;28;20051;-48
2023/09/26 10:38:12;;;;;;;5.65;2.42;;;29.90;81.10;;;;;;5093697;28;20023;-51
2023/09/26 10:40:37;;;;;;;3.15;2.08;;;29.70;80.30;;;;;;5093406;28;20063;-50
2023/09/26 10:43:03;;;;;;;2.30;1.50;;;29.40;79.40;;;;;;5093739;28;20047;-52
2023/09/26 10:45:29;;;;;;;2.83;1.50;;;28.80;80.10;;;;;;5093428;28;20024;-54
2023/09/26 10:47:54;;;;;;;3.28;1.20;;;28.30;81.20;;;;;;5093582;28;20024;-54
2023/09/26 10:50:22;;;;;;;3.85;1.60;;;27.60;81.70;;;;;;5093296;28;20469;-53
2023/09/26 10:52:48;;;;;;;1.58;1.02;;;27.00;82.80;;;;;;5093710;28;20036;-52
2023/09/26 10:55:17;;;;;;;2.47;1.20;;;26.20;85.00;;;;;;5093597;28;20039;-53
2023/09/26 10:57:46;;;;;;;2.67;1.10;;;25.50;85.70;;;;;;5093491;28;20473;-51
2023/09/26 11:00:14;;;;;;;3.85;1.95;;;25.10;84.90;;;;;;5093118;28;20082;-54
2023/09/26 11:02:43;;;;;;;4.15;1.70;;;24.40;88.30;;;;;;5093513;28;20116;-55
2023/09/26 11:05:11;;;;;;;2.80;1.60;;;24.00;90.00;;;;;;5093356;28;20484;-53
2023/09/26 11:07:38;;;;;;;2.75;1.48;;;23.90;90.60;;;;;;5093351;28;20043;-51
2023/09/26 11:10:05;;;;;;;3.60;1.42;;;23.70;90.30;;;;;;5092702;28;20035;-49
2023/09/26 11:12:31;;;;;;;2.55;1.30;;;23.50;91.00;;;;;;5092958;28;20028;-50
2023/09/26 11:15:01;;;;;;;2.40;1.40;;;23.50;92.20;;;;;;5092829;28;20032;-50
2023/09/26 11:17:28;;;;;;;4.43;2.00;;;23.40;92.30;;;;;;5092901;28;20057;-52
2023/09/26 11:19:57;;;;;;;2.08;1.35;;;23.30;92.20;;;;;;5092568;28;20036;-50
2023/09/26 11:22:24;;;;;;;3.17;1.65;;;23.40;92.60;;;;;;5092927;28;20435;-54
2023/09/26 11:25:06;;;;;;;3.58;1.58;;;23.40;91.50;;;;;;5092875;28;20391;-54
2023/09/26 11:27:36;;;;;;;4.38;2.00;;;23.30;91.40;;;;;;5092740;28;20024;-50
2023/09/26 11:30:03;;;;;;;2.05;1.35;;;23.20;92.20;;;;;;5092455;28;20078;-49
2023/09/26 11:32:29;;;;;;;3.70;1.73;;;23.20;93.40;;;;;;5092222;28;20472;-53
2023/09/26 11:34:55;;;;;;;3.70;1.30;;;23.30;92.70;;;;;;5092805;28;20144;-53
2023/09/26 11:37:23;;;;;;;3.40;1.50;;;23.30;92.40;;;;;;5092643;28;20147;-53
2023/09/26 11:39:52;;;;;;;4.28;1.70;;;23.30;92.00;;;;;;5092065;28;20032;-52
2023/09/26 11:42:18;;;;;;;2.67;1.50;;;23.50;91.80;;;;;;5092326;28;20027;-53
2023/09/26 11:44:54;;;;;;;4.72;2.60;;;23.50;91.70;;;;;;5092384;28;20408;-51
2023/09/26 11:47:24;;;;;;;6.70;2.50;;;23.70;92.10;;;;;;5092271;28;20024;-53
2023/09/26 11:49:51;;;;;;;6.32;2.20;;;24.00;91.50;;;;;;5091947;28;20086;-52
2023/09/26 11:52:18;;;;;;;2.47;1.40;;;24.20;92.40;;;;;;5074057;28;20055;-53
2023/09/26 11:54:44;;;;;;;2.83;1.38;;;24.30;90.50;;;;;;5092190;28;20111;-54
2023/09/26 11:57:13;;;;;;;2.90;1.23;;;24.40;90.10;;;;;;5092097;28;20043;-51
2023/09/26 11:59:39;;;;;;;;;;;24.20;89.40;;;;;;5092355;28;20110;-54
2023/09/26 12:02:04;;;;;;;4.20;1.70;;;24.00;88.50;;;;;;5091854;28;19953;-50
2023/09/26 12:04:32;;;;;;;2.47;1.23;;;24.00;90.50;;;;;;5091917;28;20040;-54
2023/09/26 12:06:58;;;;;;;2.40;1.20;;;24.00;88.30;;;;;;5091888;28;20034;-50
2023/09/26 12:09:24;;;;;;;3.78;2.20;;;24.00;89.20;;;;;;5091576;28;20093;-53
2023/09/26 12:11:55;;;;;;;3.10;1.40;;;24.00;89.50;;;;;;5091682;28;20024;-54
2023/09/26 12:14:21;;;;;;;2.70;1.42;;;24.20;89.80;;;;;;5091944;28;20036;-53
2023/09/26 12:16:53;;;;;;;3.67;1.92;;;24.30;88.60;;;;;;5092040;28;20062;-54
2023/09/26 12:19:20;;;;;;;3.85;1.95;;;24.50;88.10;;;;;;5073225;28;20043;-54
2023/09/26 12:21:49;;;;;;;4.53;1.80;;;24.70;87.90;;;;;;5091453;28;20040;-50
2023/09/26 12:24:15;;;;;;;4.75;1.85;;;24.70;87.90;;;;;;5091575;28;20035;-50
2023/09/26 12:26:41;;;;;;;3.22;1.30;;;24.70;87.50;;;;;;5091594;28;20476;-54
2023/09/26 12:29:08;;;;;;;5.35;2.45;;;24.80;86.80;;;;;;5091231;28;20027;-51
2023/09/26 12:31:33;;;;;;;3.75;1.15;;;24.70;89.30;;;;;;5073089;28;20031;-52
2023/09/26 12:34:02;;;;;;;2.75;1.38;;;24.60;87.10;;;;;;5091493;28;20495;-51
2023/09/26 12:36:28;;;;;;;2.63;1.50;;;24.40;87.80;;;;;;5091466;28;20078;-49
2023/09/26 12:38:53;;;;;;;1.77;1.02;;;24.40;88.10;;;;;;5091265;28;20184;-49
2023/09/26 12:41:19;;;;;;;4.97;2.42;;;24.40;89.10;;;;;;5091506;28;20485;-49
2023/09/26 12:43:45;;;;;;;4.80;1.40;;;24.40;90.10;;;;;;5090587;28;20044;-52
2023/09/26 12:46:10;;;;;;;3.88;1.98;;;24.50;88.80;;;;;;5091192;28;20035;-53